sensor_id;sensor_type;location;lat;lon;timestamp;P1;durP1;ratioP1;P2;durP2;ratioP2
70148;SDS011;57514;52.164;5.282;2023-07-16T00:00:49;12.80;;;2.10;;
70148;SDS011;57514;52.164;5.282;2023-07-16T00:03:17;10.18;;;2.03;;
70148;SDS011;57514;52.164;5.282;2023-07-16T00:05:44;8.48;;;2.00;;
70148;SDS011;57514;52.164;5.282;2023-07-16T00:08:37;10.00;;;2.13;;
70148;SDS011;57514;52.164;5.282;2023-07-16T00:11:04;8.35;;;2.13;;
70148;SDS011;57514;52.164;5.282;2023-07-16T00:13:32;9.65;;;2.17;;
70148;SDS011;57514;52.164;5.282;2023-07-16T00:16:01;10.75;;;2.30;;
70148;SDS011;57514;52.164;5.282;2023-07-16T00:18:30;6.57;;;1.77;;
70148;SDS011;57514;52.164;5.282;2023-07-16T00:20:58;7.22;;;1.85;;
70148;SDS011;57514;52.164;5.282;2023-07-16T00:23:25;8.10;;;2.05;;
70148;SDS011;57514;52.164;5.282;2023-07-16T00:25:52;9.50;;;2.17;;
70148;SDS011;57514;52.164;5.282;2023-07-16T00:28:20;7.20;;;1.98;;
70148;SDS011;57514;52.164;5.282;2023-07-16T00:30:47;8.48;;;2.15;;
70148;SDS011;57514;52.164;5.282;2023-07-16T00:33:17;8.45;;;2.17;;
70148;SDS011;57514;52.164;5.282;2023-07-16T00:35:48;11.32;;;2.42;;
70148;SDS011;57514;52.164;5.282;2023-07-16T00:38:17;7.22;;;2.30;;
70148;SDS011;57514;52.164;5.282;2023-07-16T00:40:45;9.25;;;2.20;;
70148;SDS011;57514;52.164;5.282;2023-07-16T00:43:12;8.02;;;2.28;;
70148;SDS011;57514;52.164;5.282;2023-07-16T00:45:42;10.32;;;2.88;;
70148;SDS011;57514;52.164;5.282;2023-07-16T00:48:12;10.35;;;2.70;;
70148;SDS011;57514;52.164;5.282;2023-07-16T00:50:40;10.13;;;2.42;;
70148;SDS011;57514;52.164;5.282;2023-07-16T00:53:08;7.05;;;1.98;;
70148;SDS011;57514;52.164;5.282;2023-07-16T00:55:42;8.52;;;2.20;;
70148;SDS011;57514;52.164;5.282;2023-07-16T00:58:11;6.47;;;2.33;;
70148;SDS011;57514;52.164;5.282;2023-07-16T01:00:43;11.82;;;2.40;;
70148;SDS011;57514;52.164;5.282;2023-07-16T01:03:11;7.60;;;2.20;;
70148;SDS011;57514;52.164;5.282;2023-07-16T01:05:44;7.30;;;2.40;;
70148;SDS011;57514;52.164;5.282;2023-07-16T01:08:15;7.82;;;2.22;;
70148;SDS011;57514;52.164;5.282;2023-07-16T01:10:53;9.45;;;2.38;;
70148;SDS011;57514;52.164;5.282;2023-07-16T01:13:21;11.23;;;3.00;;
70148;SDS011;57514;52.164;5.282;2023-07-16T01:15:49;9.70;;;2.58;;
70148;SDS011;57514;52.164;5.282;2023-07-16T01:18:23;10.95;;;2.70;;
70148;SDS011;57514;52.164;5.282;2023-07-16T01:30:52;9.73;;;2.97;;
70148;SDS011;57514;52.164;5.282;2023-07-16T01:33:21;9.57;;;2.40;;
70148;SDS011;57514;52.164;5.282;2023-07-16T01:35:49;9.68;;;2.63;;
70148;SDS011;57514;52.164;5.282;2023-07-16T01:38:19;9.77;;;2.83;;
70148;SDS011;57514;52.164;5.282;2023-07-16T01:40:47;8.77;;;2.70;;
70148;SDS011;57514;52.164;5.282;2023-07-16T01:43:14;10.35;;;2.65;;
70148;SDS011;57514;52.164;5.282;2023-07-16T01:45:42;9.77;;;3.00;;
70148;SDS011;57514;52.164;5.282;2023-07-16T01:50:40;10.95;;;2.83;;
70148;SDS011;57514;52.164;5.282;2023-07-16T01:53:08;10.32;;;2.58;;
70148;SDS011;57514;52.164;5.282;2023-07-16T01:55:35;11.50;;;2.72;;
70148;SDS011;57514;52.164;5.282;2023-07-16T01:58:03;10.18;;;2.60;;
70148;SDS011;57514;52.164;5.282;2023-07-16T02:00:33;14.18;;;3.00;;
70148;SDS011;57514;52.164;5.282;2023-07-16T02:03:00;8.30;;;2.60;;
70148;SDS011;57514;52.164;5.282;2023-07-16T02:05:27;7.72;;;2.08;;
70148;SDS011;57514;52.164;5.282;2023-07-16T02:07:54;9.25;;;2.60;;
70148;SDS011;57514;52.164;5.282;2023-07-16T02:10:22;10.27;;;3.30;;
70148;SDS011;57514;52.164;5.282;2023-07-16T02:12:53;8.07;;;2.65;;
70148;SDS011;57514;52.164;5.282;2023-07-16T02:15:24;8.93;;;2.90;;
70148;SDS011;57514;52.164;5.282;2023-07-16T02:17:51;9.50;;;2.95;;
70148;SDS011;57514;52.164;5.282;2023-07-16T02:20:21;9.25;;;2.60;;
70148;SDS011;57514;52.164;5.282;2023-07-16T02:22:48;13.07;;;3.28;;
70148;SDS011;57514;52.164;5.282;2023-07-16T02:25:16;13.65;;;3.30;;
70148;SDS011;57514;52.164;5.282;2023-07-16T02:27:46;10.88;;;3.20;;
70148;SDS011;57514;52.164;5.282;2023-07-16T02:30:14;13.50;;;3.38;;
70148;SDS011;57514;52.164;5.282;2023-07-16T02:32:44;12.00;;;3.58;;
70148;SDS011;57514;52.164;5.282;2023-07-16T02:35:12;10.32;;;2.78;;
70148;SDS011;57514;52.164;5.282;2023-07-16T02:37:40;12.75;;;2.90;;
70148;SDS011;57514;52.164;5.282;2023-07-16T02:40:07;9.30;;;3.15;;
70148;SDS011;57514;52.164;5.282;2023-07-16T02:42:35;8.90;;;3.08;;
70148;SDS011;57514;52.164;5.282;2023-07-16T02:45:05;13.18;;;3.15;;
70148;SDS011;57514;52.164;5.282;2023-07-16T02:47:34;10.07;;;3.25;;
70148;SDS011;57514;52.164;5.282;2023-07-16T02:50:01;10.93;;;3.15;;
70148;SDS011;57514;52.164;5.282;2023-07-16T02:52:28;10.30;;;3.20;;
70148;SDS011;57514;52.164;5.282;2023-07-16T02:54:56;15.05;;;3.63;;
70148;SDS011;57514;52.164;5.282;2023-07-16T02:57:23;9.45;;;3.17;;
70148;SDS011;57514;52.164;5.282;2023-07-16T02:59:51;13.68;;;3.00;;
70148;SDS011;57514;52.164;5.282;2023-07-16T03:02:18;12.27;;;3.40;;
70148;SDS011;57514;52.164;5.282;2023-07-16T03:04:45;14.43;;;3.30;;
70148;SDS011;57514;52.164;5.282;2023-07-16T03:07:13;11.38;;;3.85;;
70148;SDS011;57514;52.164;5.282;2023-07-16T03:09:40;13.38;;;2.90;;
70148;SDS011;57514;52.164;5.282;2023-07-16T03:19:42;12.10;;;3.50;;
70148;SDS011;57514;52.164;5.282;2023-07-16T03:22:13;19.25;;;3.67;;
70148;SDS011;57514;52.164;5.282;2023-07-16T03:27:53;11.23;;;3.10;;
70148;SDS011;57514;52.164;5.282;2023-07-16T03:30:20;8.32;;;2.70;;
70148;SDS011;57514;52.164;5.282;2023-07-16T03:32:48;11.20;;;3.17;;
70148;SDS011;57514;52.164;5.282;2023-07-16T03:35:22;14.40;;;3.22;;
70148;SDS011;57514;52.164;5.282;2023-07-16T03:37:51;10.60;;;3.33;;
70148;SDS011;57514;52.164;5.282;2023-07-16T03:40:25;12.05;;;3.38;;
70148;SDS011;57514;52.164;5.282;2023-07-16T03:42:52;9.10;;;2.75;;
70148;SDS011;57514;52.164;5.282;2023-07-16T03:45:21;12.57;;;2.75;;
70148;SDS011;57514;52.164;5.282;2023-07-16T03:47:49;12.40;;;3.28;;
70148;SDS011;57514;52.164;5.282;2023-07-16T03:50:18;8.20;;;2.30;;
70148;SDS011;57514;52.164;5.282;2023-07-16T03:52:46;9.70;;;3.30;;
70148;SDS011;57514;52.164;5.282;2023-07-16T03:55:13;16.73;;;3.97;;
70148;SDS011;57514;52.164;5.282;2023-07-16T03:57:42;9.07;;;2.92;;
70148;SDS011;57514;52.164;5.282;2023-07-16T04:00:10;10.63;;;2.92;;
70148;SDS011;57514;52.164;5.282;2023-07-16T04:05:12;10.55;;;2.92;;
70148;SDS011;57514;52.164;5.282;2023-07-16T04:07:42;13.20;;;2.92;;
70148;SDS011;57514;52.164;5.282;2023-07-16T04:12:36;7.07;;;3.00;;
70148;SDS011;57514;52.164;5.282;2023-07-16T04:15:06;9.68;;;2.78;;
70148;SDS011;57514;52.164;5.282;2023-07-16T04:17:36;11.10;;;3.33;;
70148;SDS011;57514;52.164;5.282;2023-07-16T04:20:03;11.68;;;3.95;;
70148;SDS011;57514;52.164;5.282;2023-07-16T04:22:31;12.63;;;3.53;;
70148;SDS011;57514;52.164;5.282;2023-07-16T04:24:58;10.07;;;3.38;;
70148;SDS011;57514;52.164;5.282;2023-07-16T04:27:25;9.60;;;3.17;;
70148;SDS011;57514;52.164;5.282;2023-07-16T04:29:55;9.88;;;2.90;;
70148;SDS011;57514;52.164;5.282;2023-07-16T04:32:22;13.27;;;4.13;;
70148;SDS011;57514;52.164;5.282;2023-07-16T04:34:50;7.57;;;2.60;;
70148;SDS011;57514;52.164;5.282;2023-07-16T04:37:19;12.25;;;3.90;;
70148;SDS011;57514;52.164;5.282;2023-07-16T04:39:47;16.52;;;3.72;;
70148;SDS011;57514;52.164;5.282;2023-07-16T04:42:14;9.27;;;3.40;;
70148;SDS011;57514;52.164;5.282;2023-07-16T04:44:43;10.35;;;2.90;;
70148;SDS011;57514;52.164;5.282;2023-07-16T04:47:10;9.90;;;3.30;;
70148;SDS011;57514;52.164;5.282;2023-07-16T04:49:37;11.02;;;3.67;;
70148;SDS011;57514;52.164;5.282;2023-07-16T04:52:05;10.20;;;3.35;;
70148;SDS011;57514;52.164;5.282;2023-07-16T04:54:36;9.68;;;2.85;;
70148;SDS011;57514;52.164;5.282;2023-07-16T04:57:05;13.25;;;3.95;;
70148;SDS011;57514;52.164;5.282;2023-07-16T04:59:32;7.72;;;2.70;;
70148;SDS011;57514;52.164;5.282;2023-07-16T05:02:01;11.07;;;3.60;;
70148;SDS011;57514;52.164;5.282;2023-07-16T05:04:30;10.88;;;3.97;;
70148;SDS011;57514;52.164;5.282;2023-07-16T05:06:58;10.52;;;3.40;;
70148;SDS011;57514;52.164;5.282;2023-07-16T05:09:25;8.07;;;2.90;;
70148;SDS011;57514;52.164;5.282;2023-07-16T05:11:53;13.32;;;3.42;;
70148;SDS011;57514;52.164;5.282;2023-07-16T05:14:20;10.52;;;3.70;;
70148;SDS011;57514;52.164;5.282;2023-07-16T05:16:47;8.82;;;3.00;;
70148;SDS011;57514;52.164;5.282;2023-07-16T05:19:14;11.07;;;3.35;;
70148;SDS011;57514;52.164;5.282;2023-07-16T05:21:41;8.35;;;3.55;;
70148;SDS011;57514;52.164;5.282;2023-07-16T05:24:09;9.32;;;3.25;;
70148;SDS011;57514;52.164;5.282;2023-07-16T05:26:37;12.40;;;3.75;;
70148;SDS011;57514;52.164;5.282;2023-07-16T05:29:04;12.95;;;3.70;;
70148;SDS011;57514;52.164;5.282;2023-07-16T05:31:31;10.60;;;3.70;;
70148;SDS011;57514;52.164;5.282;2023-07-16T05:34:05;9.80;;;3.65;;
70148;SDS011;57514;52.164;5.282;2023-07-16T05:36:32;12.38;;;3.65;;
70148;SDS011;57514;52.164;5.282;2023-07-16T05:38:59;8.93;;;2.90;;
70148;SDS011;57514;52.164;5.282;2023-07-16T05:41:26;11.88;;;3.95;;
70148;SDS011;57514;52.164;5.282;2023-07-16T05:43:53;12.52;;;4.22;;
70148;SDS011;57514;52.164;5.282;2023-07-16T05:46:21;9.45;;;3.97;;
70148;SDS011;57514;52.164;5.282;2023-07-16T05:48:49;10.57;;;3.90;;
70148;SDS011;57514;52.164;5.282;2023-07-16T05:51:18;9.85;;;3.50;;
70148;SDS011;57514;52.164;5.282;2023-07-16T05:53:46;8.65;;;3.30;;
70148;SDS011;57514;52.164;5.282;2023-07-16T05:56:13;11.02;;;3.72;;
70148;SDS011;57514;52.164;5.282;2023-07-16T05:58:41;11.63;;;3.97;;
70148;SDS011;57514;52.164;5.282;2023-07-16T06:01:08;9.45;;;3.15;;
70148;SDS011;57514;52.164;5.282;2023-07-16T06:03:38;8.95;;;3.42;;
70148;SDS011;57514;52.164;5.282;2023-07-16T06:06:12;11.02;;;3.08;;
70148;SDS011;57514;52.164;5.282;2023-07-16T06:08:41;11.95;;;3.75;;
70148;SDS011;57514;52.164;5.282;2023-07-16T06:11:09;12.35;;;4.13;;
70148;SDS011;57514;52.164;5.282;2023-07-16T06:13:36;13.00;;;3.75;;
70148;SDS011;57514;52.164;5.282;2023-07-16T06:16:06;10.88;;;3.85;;
70148;SDS011;57514;52.164;5.282;2023-07-16T06:21:06;10.27;;;3.95;;
70148;SDS011;57514;52.164;5.282;2023-07-16T06:23:33;9.90;;;3.85;;
70148;SDS011;57514;52.164;5.282;2023-07-16T06:26:04;13.32;;;3.95;;
70148;SDS011;57514;52.164;5.282;2023-07-16T06:28:31;14.43;;;3.80;;
70148;SDS011;57514;52.164;5.282;2023-07-16T06:31:11;11.32;;;3.75;;
70148;SDS011;57514;52.164;5.282;2023-07-16T06:36:53;10.60;;;3.42;;
70148;SDS011;57514;52.164;5.282;2023-07-16T06:39:19;12.85;;;3.65;;
70148;SDS011;57514;52.164;5.282;2023-07-16T06:41:49;16.35;;;4.25;;
70148;SDS011;57514;52.164;5.282;2023-07-16T06:44:21;10.80;;;3.72;;
70148;SDS011;57514;52.164;5.282;2023-07-16T06:46:58;11.43;;;3.80;;
70148;SDS011;57514;52.164;5.282;2023-07-16T06:49:25;8.80;;;3.15;;
70148;SDS011;57514;52.164;5.282;2023-07-16T06:52:00;10.50;;;3.97;;
70148;SDS011;57514;52.164;5.282;2023-07-16T06:54:31;10.25;;;3.63;;
70148;SDS011;57514;52.164;5.282;2023-07-16T06:57:03;11.55;;;3.83;;
70148;SDS011;57514;52.164;5.282;2023-07-16T06:59:30;9.82;;;3.70;;
70148;SDS011;57514;52.164;5.282;2023-07-16T07:01:57;9.85;;;3.80;;
70148;SDS011;57514;52.164;5.282;2023-07-16T07:04:50;9.82;;;3.38;;
70148;SDS011;57514;52.164;5.282;2023-07-16T07:07:17;12.38;;;3.72;;
70148;SDS011;57514;52.164;5.282;2023-07-16T07:09:48;13.57;;;4.20;;
70148;SDS011;57514;52.164;5.282;2023-07-16T07:12:15;12.63;;;3.80;;
70148;SDS011;57514;52.164;5.282;2023-07-16T07:17:43;9.45;;;2.90;;
70148;SDS011;57514;52.164;5.282;2023-07-16T07:20:13;9.95;;;3.53;;
70148;SDS011;57514;52.164;5.282;2023-07-16T07:22:56;11.45;;;3.83;;
70148;SDS011;57514;52.164;5.282;2023-07-16T07:29:06;11.00;;;3.97;;
70148;SDS011;57514;52.164;5.282;2023-07-16T07:31:34;9.43;;;3.25;;
70148;SDS011;57514;52.164;5.282;2023-07-16T07:36:33;11.30;;;3.88;;
70148;SDS011;57514;52.164;5.282;2023-07-16T07:39:00;11.10;;;3.70;;
70148;SDS011;57514;52.164;5.282;2023-07-16T07:41:28;10.55;;;4.13;;
70148;SDS011;57514;52.164;5.282;2023-07-16T07:43:55;10.32;;;3.63;;
70148;SDS011;57514;52.164;5.282;2023-07-16T07:46:22;10.65;;;4.43;;
70148;SDS011;57514;52.164;5.282;2023-07-16T07:48:50;12.93;;;3.90;;
70148;SDS011;57514;52.164;5.282;2023-07-16T07:51:18;11.35;;;3.97;;
70148;SDS011;57514;52.164;5.282;2023-07-16T07:53:58;9.70;;;3.70;;
70148;SDS011;57514;52.164;5.282;2023-07-16T07:56:27;15.20;;;4.20;;
70148;SDS011;57514;52.164;5.282;2023-07-16T07:58:55;12.93;;;4.32;;
70148;SDS011;57514;52.164;5.282;2023-07-16T08:01:48;11.18;;;3.83;;
70148;SDS011;57514;52.164;5.282;2023-07-16T08:04:16;12.90;;;3.90;;
70148;SDS011;57514;52.164;5.282;2023-07-16T08:06:44;12.65;;;3.88;;
70148;SDS011;57514;52.164;5.282;2023-07-16T08:09:18;9.05;;;3.58;;
70148;SDS011;57514;52.164;5.282;2023-07-16T08:11:45;9.52;;;3.65;;
70148;SDS011;57514;52.164;5.282;2023-07-16T08:14:12;10.18;;;3.97;;
70148;SDS011;57514;52.164;5.282;2023-07-16T08:16:39;8.57;;;3.50;;
70148;SDS011;57514;52.164;5.282;2023-07-16T08:19:07;10.50;;;3.80;;
70148;SDS011;57514;52.164;5.282;2023-07-16T08:21:34;11.52;;;3.70;;
70148;SDS011;57514;52.164;5.282;2023-07-16T08:24:05;11.25;;;4.35;;
70148;SDS011;57514;52.164;5.282;2023-07-16T08:27:12;11.98;;;4.45;;
70148;SDS011;57514;52.164;5.282;2023-07-16T08:29:41;11.00;;;4.18;;
70148;SDS011;57514;52.164;5.282;2023-07-16T08:32:08;11.50;;;4.18;;
70148;SDS011;57514;52.164;5.282;2023-07-16T08:34:36;11.80;;;3.83;;
70148;SDS011;57514;52.164;5.282;2023-07-16T08:39:53;11.85;;;4.18;;
70148;SDS011;57514;52.164;5.282;2023-07-16T08:42:20;10.70;;;4.18;;
70148;SDS011;57514;52.164;5.282;2023-07-16T08:44:48;13.82;;;4.32;;
70148;SDS011;57514;52.164;5.282;2023-07-16T08:47:24;10.75;;;4.05;;
70148;SDS011;57514;52.164;5.282;2023-07-16T08:49:55;12.13;;;4.38;;
70148;SDS011;57514;52.164;5.282;2023-07-16T08:52:26;12.30;;;4.00;;
70148;SDS011;57514;52.164;5.282;2023-07-16T08:57:46;9.27;;;3.38;;
70148;SDS011;57514;52.164;5.282;2023-07-16T09:00:20;10.40;;;3.83;;
70148;SDS011;57514;52.164;5.282;2023-07-16T09:04:03;11.60;;;4.07;;
70148;SDS011;57514;52.164;5.282;2023-07-16T09:06:30;8.95;;;3.92;;
70148;SDS011;57514;52.164;5.282;2023-07-16T09:08:58;11.85;;;4.25;;
70148;SDS011;57514;52.164;5.282;2023-07-16T09:11:25;15.38;;;4.85;;
70148;SDS011;57514;52.164;5.282;2023-07-16T09:13:53;12.00;;;4.25;;
70148;SDS011;57514;52.164;5.282;2023-07-16T09:16:22;9.77;;;3.70;;
70148;SDS011;57514;52.164;5.282;2023-07-16T09:18:55;9.05;;;3.85;;
70148;SDS011;57514;52.164;5.282;2023-07-16T09:21:23;14.00;;;4.65;;
70148;SDS011;57514;52.164;5.282;2023-07-16T09:39:23;9.52;;;2.95;;
70148;SDS011;57514;52.164;5.282;2023-07-16T09:41:53;13.95;;;3.85;;
70148;SDS011;57514;52.164;5.282;2023-07-16T10:02:44;12.93;;;4.45;;
70148;SDS011;57514;52.164;5.282;2023-07-16T10:05:12;13.82;;;4.25;;
70148;SDS011;57514;52.164;5.282;2023-07-16T10:07:40;9.60;;;4.38;;
70148;SDS011;57514;52.164;5.282;2023-07-16T10:10:08;13.18;;;3.83;;
70148;SDS011;57514;52.164;5.282;2023-07-16T10:12:40;13.15;;;4.43;;
70148;SDS011;57514;52.164;5.282;2023-07-16T10:15:08;11.05;;;4.18;;
70148;SDS011;57514;52.164;5.282;2023-07-16T10:17:37;10.00;;;3.90;;
70148;SDS011;57514;52.164;5.282;2023-07-16T10:20:08;8.20;;;3.38;;
70148;SDS011;57514;52.164;5.282;2023-07-16T10:22:40;9.88;;;3.47;;
70148;SDS011;57514;52.164;5.282;2023-07-16T10:27:47;10.77;;;3.78;;
70148;SDS011;57514;52.164;5.282;2023-07-16T10:30:54;9.60;;;4.10;;
70148;SDS011;57514;52.164;5.282;2023-07-16T10:33:22;12.68;;;4.43;;
70148;SDS011;57514;52.164;5.282;2023-07-16T10:35:49;11.38;;;4.63;;
70148;SDS011;57514;52.164;5.282;2023-07-16T10:38:16;12.35;;;4.60;;
70148;SDS011;57514;52.164;5.282;2023-07-16T10:40:44;11.85;;;4.13;;
70148;SDS011;57514;52.164;5.282;2023-07-16T10:43:14;11.65;;;3.85;;
70148;SDS011;57514;52.164;5.282;2023-07-16T10:45:41;11.88;;;3.92;;
70148;SDS011;57514;52.164;5.282;2023-07-16T10:48:13;9.35;;;3.63;;
70148;SDS011;57514;52.164;5.282;2023-07-16T10:50:41;10.07;;;4.10;;
70148;SDS011;57514;52.164;5.282;2023-07-16T10:53:08;8.75;;;3.28;;
70148;SDS011;57514;52.164;5.282;2023-07-16T10:55:35;10.38;;;4.15;;
70148;SDS011;57514;52.164;5.282;2023-07-16T10:58:06;12.23;;;3.85;;
70148;SDS011;57514;52.164;5.282;2023-07-16T11:00:36;8.88;;;3.70;;
70148;SDS011;57514;52.164;5.282;2023-07-16T11:03:05;9.90;;;3.67;;
70148;SDS011;57514;52.164;5.282;2023-07-16T11:05:33;8.20;;;3.22;;
70148;SDS011;57514;52.164;5.282;2023-07-16T11:08:02;10.40;;;3.83;;
70148;SDS011;57514;52.164;5.282;2023-07-16T11:10:29;8.98;;;3.22;;
70148;SDS011;57514;52.164;5.282;2023-07-16T11:12:57;10.00;;;3.25;;
70148;SDS011;57514;52.164;5.282;2023-07-16T11:15:37;7.63;;;2.90;;
70148;SDS011;57514;52.164;5.282;2023-07-16T11:18:08;8.13;;;2.80;;
70148;SDS011;57514;52.164;5.282;2023-07-16T11:20:38;6.63;;;2.42;;
70148;SDS011;57514;52.164;5.282;2023-07-16T11:23:05;8.30;;;2.70;;
70148;SDS011;57514;52.164;5.282;2023-07-16T11:25:33;6.75;;;2.33;;
70148;SDS011;57514;52.164;5.282;2023-07-16T11:28:00;4.75;;;2.10;;
70148;SDS011;57514;52.164;5.282;2023-07-16T11:30:28;6.35;;;2.55;;
70148;SDS011;57514;52.164;5.282;2023-07-16T11:32:58;10.43;;;2.78;;
70148;SDS011;57514;52.164;5.282;2023-07-16T11:35:27;8.80;;;2.70;;
70148;SDS011;57514;52.164;5.282;2023-07-16T11:37:56;7.63;;;2.67;;
70148;SDS011;57514;52.164;5.282;2023-07-16T11:40:23;8.35;;;3.05;;
70148;SDS011;57514;52.164;5.282;2023-07-16T11:42:51;7.18;;;2.90;;
70148;SDS011;57514;52.164;5.282;2023-07-16T11:45:25;8.82;;;3.30;;
70148;SDS011;57514;52.164;5.282;2023-07-16T11:47:59;8.48;;;3.13;;
70148;SDS011;57514;52.164;5.282;2023-07-16T12:08:48;10.85;;;2.28;;
70148;SDS011;57514;52.164;5.282;2023-07-16T12:14:13;5.55;;;2.03;;
70148;SDS011;57514;52.164;5.282;2023-07-16T12:16:40;6.72;;;2.10;;
70148;SDS011;57514;52.164;5.282;2023-07-16T12:19:23;7.35;;;2.40;;
70148;SDS011;57514;52.164;5.282;2023-07-16T12:24:49;5.30;;;1.70;;
70148;SDS011;57514;52.164;5.282;2023-07-16T12:27:27;4.85;;;1.70;;
70148;SDS011;57514;52.164;5.282;2023-07-16T12:29:54;6.00;;;1.80;;
70148;SDS011;57514;52.164;5.282;2023-07-16T12:33:15;5.32;;;1.70;;
70148;SDS011;57514;52.164;5.282;2023-07-16T12:36:51;7.22;;;2.25;;
70148;SDS011;57514;52.164;5.282;2023-07-16T12:39:20;7.05;;;2.20;;
70148;SDS011;57514;52.164;5.282;2023-07-16T12:41:53;6.78;;;1.95;;
70148;SDS011;57514;52.164;5.282;2023-07-16T12:44:23;7.80;;;2.10;;
70148;SDS011;57514;52.164;5.282;2023-07-16T12:46:53;4.97;;;1.92;;
70148;SDS011;57514;52.164;5.282;2023-07-16T12:53:50;7.93;;;1.92;;
70148;SDS011;57514;52.164;5.282;2023-07-16T12:57:31;7.80;;;1.90;;
70148;SDS011;57514;52.164;5.282;2023-07-16T12:59:58;7.45;;;1.80;;
70148;SDS011;57514;52.164;5.282;2023-07-16T13:02:26;5.65;;;1.83;;
70148;SDS011;57514;52.164;5.282;2023-07-16T13:04:53;5.32;;;1.85;;
70148;SDS011;57514;52.164;5.282;2023-07-16T13:07:20;5.35;;;1.75;;
70148;SDS011;57514;52.164;5.282;2023-07-16T13:09:48;6.30;;;1.60;;
70148;SDS011;57514;52.164;5.282;2023-07-16T13:12:42;7.47;;;1.90;;
70148;SDS011;57514;52.164;5.282;2023-07-16T13:15:17;4.97;;;1.63;;
70148;SDS011;57514;52.164;5.282;2023-07-16T13:21:06;7.85;;;2.53;;
70148;SDS011;57514;52.164;5.282;2023-07-16T13:23:33;9.15;;;1.85;;
70148;SDS011;57514;52.164;5.282;2023-07-16T13:26:16;7.78;;;1.70;;
70148;SDS011;57514;52.164;5.282;2023-07-16T13:28:50;6.03;;;1.85;;
70148;SDS011;57514;52.164;5.282;2023-07-16T13:31:19;6.32;;;1.80;;
70148;SDS011;57514;52.164;5.282;2023-07-16T13:33:49;5.28;;;1.35;;
70148;SDS011;57514;52.164;5.282;2023-07-16T13:36:17;4.53;;;1.55;;
70148;SDS011;57514;52.164;5.282;2023-07-16T13:44:13;6.75;;;1.90;;
70148;SDS011;57514;52.164;5.282;2023-07-16T13:46:43;7.43;;;1.70;;
70148;SDS011;57514;52.164;5.282;2023-07-16T14:27:10;7.43;;;1.60;;
70148;SDS011;57514;52.164;5.282;2023-07-16T14:29:47;7.20;;;1.52;;
70148;SDS011;57514;52.164;5.282;2023-07-16T14:35:23;7.15;;;1.30;;
70148;SDS011;57514;52.164;5.282;2023-07-16T14:38:02;5.72;;;1.58;;
70148;SDS011;57514;52.164;5.282;2023-07-16T14:40:30;9.77;;;1.88;;
70148;SDS011;57514;52.164;5.282;2023-07-16T14:42:57;3.65;;;1.05;;
70148;SDS011;57514;52.164;5.282;2023-07-16T14:45:26;10.55;;;1.63;;
70148;SDS011;57514;52.164;5.282;2023-07-16T14:47:54;6.03;;;1.55;;
70148;SDS011;57514;52.164;5.282;2023-07-16T14:50:21;5.13;;;1.60;;
70148;SDS011;57514;52.164;5.282;2023-07-16T14:55:55;4.43;;;1.73;;
70148;SDS011;57514;52.164;5.282;2023-07-16T14:58:36;8.15;;;1.77;;
70148;SDS011;57514;52.164;5.282;2023-07-16T15:01:04;4.90;;;1.90;;
70148;SDS011;57514;52.164;5.282;2023-07-16T15:03:49;8.32;;;2.00;;
70148;SDS011;57514;52.164;5.282;2023-07-16T15:06:17;8.90;;;1.58;;
70148;SDS011;57514;52.164;5.282;2023-07-16T15:36:36;4.50;;;1.65;;
70148;SDS011;57514;52.164;5.282;2023-07-16T15:39:04;7.50;;;1.90;;
70148;SDS011;57514;52.164;5.282;2023-07-16T15:44:53;8.18;;;2.25;;
70148;SDS011;57514;52.164;5.282;2023-07-16T15:51:24;6.47;;;1.52;;
70148;SDS011;57514;52.164;5.282;2023-07-16T15:54:10;4.68;;;1.55;;
70148;SDS011;57514;52.164;5.282;2023-07-16T16:02:21;7.85;;;2.13;;
70148;SDS011;57514;52.164;5.282;2023-07-16T16:07:42;6.10;;;2.10;;
70148;SDS011;57514;52.164;5.282;2023-07-16T16:10:20;6.13;;;1.85;;
70148;SDS011;57514;52.164;5.282;2023-07-16T16:12:56;6.05;;;1.50;;
70148;SDS011;57514;52.164;5.282;2023-07-16T16:15:37;4.05;;;1.60;;
70148;SDS011;57514;52.164;5.282;2023-07-16T16:22:37;7.25;;;1.88;;
70148;SDS011;57514;52.164;5.282;2023-07-16T16:25:07;5.57;;;1.60;;
70148;SDS011;57514;52.164;5.282;2023-07-16T16:37:53;7.45;;;1.88;;
70148;SDS011;57514;52.164;5.282;2023-07-16T16:46:06;9.00;;;1.70;;
70148;SDS011;57514;52.164;5.282;2023-07-16T16:48:35;6.35;;;1.83;;
70148;SDS011;57514;52.164;5.282;2023-07-16T16:51:04;8.57;;;2.05;;
70148;SDS011;57514;52.164;5.282;2023-07-16T16:53:31;7.47;;;1.80;;
70148;SDS011;57514;52.164;5.282;2023-07-16T16:56:03;6.65;;;1.88;;
70148;SDS011;57514;52.164;5.282;2023-07-16T16:58:31;6.75;;;1.90;;
70148;SDS011;57514;52.164;5.282;2023-07-16T17:00:59;7.60;;;2.05;;
70148;SDS011;57514;52.164;5.282;2023-07-16T17:03:26;9.88;;;2.22;;
70148;SDS011;57514;52.164;5.282;2023-07-16T17:05:57;11.48;;;2.05;;
70148;SDS011;57514;52.164;5.282;2023-07-16T17:08:42;9.40;;;2.20;;
70148;SDS011;57514;52.164;5.282;2023-07-16T17:14:02;8.50;;;2.00;;
70148;SDS011;57514;52.164;5.282;2023-07-16T17:19:28;10.18;;;2.33;;
70148;SDS011;57514;52.164;5.282;2023-07-16T17:21:57;10.48;;;2.13;;
70148;SDS011;57514;52.164;5.282;2023-07-16T17:24:28;10.13;;;2.33;;
70148;SDS011;57514;52.164;5.282;2023-07-16T17:30:14;9.43;;;2.17;;
70148;SDS011;57514;52.164;5.282;2023-07-16T17:32:45;10.35;;;1.90;;
70148;SDS011;57514;52.164;5.282;2023-07-16T17:35:13;13.35;;;2.10;;
70148;SDS011;57514;52.164;5.282;2023-07-16T17:37:47;10.02;;;2.35;;
70148;SDS011;57514;52.164;5.282;2023-07-16T17:43:14;8.23;;;1.85;;
70148;SDS011;57514;52.164;5.282;2023-07-16T17:45:45;13.27;;;2.35;;
70148;SDS011;57514;52.164;5.282;2023-07-16T17:54:11;10.93;;;2.30;;
70148;SDS011;57514;52.164;5.282;2023-07-16T17:56:38;9.40;;;2.03;;
70148;SDS011;57514;52.164;5.282;2023-07-16T17:59:06;11.40;;;2.25;;
70148;SDS011;57514;52.164;5.282;2023-07-16T18:01:41;10.05;;;1.90;;
70148;SDS011;57514;52.164;5.282;2023-07-16T18:04:09;8.65;;;1.70;;
70148;SDS011;57514;52.164;5.282;2023-07-16T18:06:36;9.68;;;2.00;;
70148;SDS011;57514;52.164;5.282;2023-07-16T18:09:14;8.65;;;1.63;;
70148;SDS011;57514;52.164;5.282;2023-07-16T18:11:50;9.75;;;2.25;;
70148;SDS011;57514;52.164;5.282;2023-07-16T18:14:18;9.70;;;2.33;;
70148;SDS011;57514;52.164;5.282;2023-07-16T18:16:45;7.80;;;1.80;;
70148;SDS011;57514;52.164;5.282;2023-07-16T18:19:57;14.00;;;2.10;;
70148;SDS011;57514;52.164;5.282;2023-07-16T18:22:25;10.73;;;2.28;;
70148;SDS011;57514;52.164;5.282;2023-07-16T18:24:56;9.55;;;2.20;;
70148;SDS011;57514;52.164;5.282;2023-07-16T18:27:35;11.10;;;2.00;;
70148;SDS011;57514;52.164;5.282;2023-07-16T18:30:04;7.47;;;2.08;;
70148;SDS011;57514;52.164;5.282;2023-07-16T18:37:58;13.23;;;1.90;;
70148;SDS011;57514;52.164;5.282;2023-07-16T18:40:26;9.52;;;2.25;;
70148;SDS011;57514;52.164;5.282;2023-07-16T18:52:05;12.95;;;2.38;;
70148;SDS011;57514;52.164;5.282;2023-07-16T18:54:33;15.32;;;2.65;;
70148;SDS011;57514;52.164;5.282;2023-07-16T18:57:10;9.98;;;1.92;;
70148;SDS011;57514;52.164;5.282;2023-07-16T18:59:58;7.60;;;2.17;;
70148;SDS011;57514;52.164;5.282;2023-07-16T19:02:35;8.27;;;1.98;;
70148;SDS011;57514;52.164;5.282;2023-07-16T19:07:55;8.27;;;1.90;;
70148;SDS011;57514;52.164;5.282;2023-07-16T19:13:27;9.30;;;1.92;;
70148;SDS011;57514;52.164;5.282;2023-07-16T19:15:53;11.32;;;2.30;;
70148;SDS011;57514;52.164;5.282;2023-07-16T19:18:23;9.98;;;2.50;;
70148;SDS011;57514;52.164;5.282;2023-07-16T19:20:53;10.43;;;1.88;;
70148;SDS011;57514;52.164;5.282;2023-07-16T19:23:20;9.10;;;2.03;;
70148;SDS011;57514;52.164;5.282;2023-07-16T19:25:47;10.70;;;2.40;;
70148;SDS011;57514;52.164;5.282;2023-07-16T19:28:19;8.70;;;1.90;;
70148;SDS011;57514;52.164;5.282;2023-07-16T19:30:45;11.35;;;2.22;;